Time;durP1;ratioP1;P1;durP2;ratioP2;P2;SDS_P1;SDS_P2;PMS_P1;PMS_P2;Temp;Humidity;BMP_temperature;BMP_pressure;BME280_temperature;BME280_humidity;BME280_pressure;Samples;Min_cycle;Max_cycle;Signal;HPM_P1;HPM_P2
2021/08/07 00:01:08;;;;;;;;;;;21.80;73.80;;;;;;5033081;28;1122;-70
2021/08/07 00:03:33;;;;;;;;;;;21.80;73.80;;;;;;5033089;28;1248;-70
2021/08/07 00:05:59;;;;;;;;;;;21.80;73.80;;;;;;5032925;28;1111;-70
2021/08/07 00:08:24;;;;;;;;;;;21.70;73.70;;;;;;5032991;28;1087;-70
2021/08/07 00:10:50;;;;;;;;;;;21.80;74.50;;;;;;5032919;28;1055;-70
2021/08/07 00:13:15;;;;;;;;;;;21.80;73.90;;;;;;5031638;28;1306;-70
2021/08/07 00:15:41;;;;;;;;;;;21.80;73.90;;;;;;5031424;28;1137;-70
2021/08/07 00:18:06;;;;;;;;;;;21.80;73.80;;;;;;5031798;28;1910;-70
2021/08/07 00:20:32;;;;;;;;;;;21.80;73.90;;;;;;5032897;28;1158;-70
2021/08/07 00:22:58;;;;;;;;;;;21.70;73.80;;;;;;5032606;28;1217;-70
2021/08/07 00:25:23;;;;;;;;;;;21.70;73.80;;;;;;5032597;28;1380;-70
2021/08/07 00:27:49;;;;;;;;;;;21.70;73.80;;;;;;5050599;28;1163;-70
2021/08/07 00:30:14;;;;;;;;;;;21.80;73.90;;;;;;5035239;28;1186;-71
2021/08/07 00:32:40;;;;;;;;;;;21.80;73.90;;;;;;5032591;28;1318;-70
2021/08/07 00:35:05;;;;;;;;;;;21.70;73.90;;;;;;5032852;28;1202;-70
2021/08/07 00:37:31;;;;;;;;;;;21.80;73.90;;;;;;5051049;28;1972;-70
2021/08/07 00:39:56;;;;;;;;;;;21.80;74.00;;;;;;5052803;28;1067;-70
2021/08/07 00:42:22;;;;;;;;;;;21.70;74.00;;;;;;5052565;28;1298;-70
2021/08/07 00:44:47;;;;;;;;;;;21.80;74.00;;;;;;5052130;28;1134;-70
2021/08/07 00:47:13;;;;;;;;;;;21.80;74.00;;;;;;5052544;28;1047;-70
2021/08/07 00:49:38;;;;;;;;;;;21.80;74.00;;;;;;5052492;28;1099;-70
2021/08/07 00:52:04;;;;;;;;;;;21.80;74.00;;;;;;5044457;28;1355;-70
2021/08/07 00:54:29;;;;;;;;;;;21.80;74.00;;;;;;5030963;28;1233;-71
2021/08/07 00:56:55;;;;;;;;;;;21.80;74.00;;;;;;5031467;28;1118;-70
2021/08/07 00:59:20;;;;;;;;;;;21.80;74.00;;;;;;5032652;28;1969;-69
2021/08/07 01:01:55;;;;;;;;;;;21.70;74.00;;;;;;5032872;28;1302;-70
2021/08/07 01:04:22;;;;;;;;;;;21.70;74.00;;;;;;5035105;28;1143;-70
2021/08/07 01:06:52;;;;;;;;;;;21.80;74.00;;;;;;5036083;28;1060;-70
2021/08/07 01:09:21;;;;;;;;;;;21.70;74.00;;;;;;5035072;28;1127;-70
2021/08/07 01:11:54;;;;;;;;;;;21.70;74.00;;;;;;5047142;28;1297;-70
2021/08/07 01:14:23;;;;;;;;;;;21.70;74.00;;;;;;5050695;28;1272;-71
2021/08/07 01:16:48;;;;;;;;;;;21.80;74.00;;;;;;5035047;28;1138;-70
2021/08/07 01:19:14;;;;;;;;;;;21.70;74.00;;;;;;5034464;28;1965;-71
2021/08/07 01:21:45;;;;;;;;;;;21.80;74.10;;;;;;5034823;28;1326;-71
2021/08/07 01:24:13;;;;;;;;;;;21.70;74.00;;;;;;5041762;28;1111;-71
2021/08/07 01:27:03;;;;;;;;;;;21.70;74.10;;;;;;5044404;28;1270;-70
2021/08/07 01:29:29;;;;;;;;;;;21.70;74.10;;;;;;5034221;28;1067;-71
2021/08/07 01:31:54;;;;;;;;;;;21.70;74.10;;;;;;5034287;28;1277;-71
2021/08/07 01:34:20;;;;;;;;;;;21.70;74.10;;;;;;5025998;28;1166;-71
2021/08/07 01:36:45;;;;;;;;;;;21.70;74.10;;;;;;5052645;28;1174;-71
2021/08/07 01:39:11;;;;;;;;;;;21.70;74.10;;;;;;5054026;28;1898;-71
2021/08/07 01:41:36;;;;;;;;;;;21.70;74.10;;;;;;5054118;28;1369;-70
2021/08/07 01:44:02;;;;;;;;;;;21.70;74.10;;;;;;5053618;28;1083;-71
2021/08/07 01:46:28;;;;;;;;;;;21.70;74.20;;;;;;5054952;28;1035;-71
2021/08/07 01:48:53;;;;;;;;;;;21.70;74.20;;;;;;5054069;28;1126;-71
2021/08/07 01:51:20;;;;;;;;;;;21.70;74.20;;;;;;5053854;28;1047;-71
2021/08/07 01:53:45;;;;;;;;;;;21.70;74.20;;;;;;5034004;28;1412;-70
2021/08/07 01:56:11;;;;;;;;;;;21.70;74.20;;;;;;5034922;28;1072;-70
2021/08/07 01:59:00;;;;;;;;;;;21.70;74.20;;;;;;5033763;28;1961;-71
2021/08/07 02:01:26;;;;;;;;;;;21.70;74.20;;;;;;5039223;28;1384;-71
2021/08/07 02:03:54;;;;;;;;;;;21.70;74.20;;;;;;5053998;28;1158;-71
2021/08/07 02:06:20;;;;;;;;;;;21.70;74.30;;;;;;5055052;28;1071;-70
2021/08/07 02:08:45;;;;;;;;;;;21.70;74.20;;;;;;5053086;28;1063;-71
2021/08/07 02:11:11;;;;;;;;;;;21.70;74.30;;;;;;5055007;28;1134;-71
2021/08/07 02:13:36;;;;;;;;;;;21.70;74.20;;;;;;5046296;28;1255;-71
2021/08/07 02:16:03;;;;;;;;;;;21.70;74.20;;;;;;5043770;28;1355;-72
2021/08/07 02:18:28;;;;;;;;;;;21.70;74.20;;;;;;5044500;28;1986;-71
2021/08/07 02:20:54;;;;;;;;;;;21.70;74.30;;;;;;5045164;28;1338;-72
2021/08/07 02:23:19;;;;;;;;;;;21.70;74.30;;;;;;5046408;28;1347;-72
2021/08/07 02:25:45;;;;;;;;;;;21.70;74.30;;;;;;5047026;28;1310;-71
2021/08/07 02:28:11;;;;;;;;;;;21.70;74.30;;;;;;5044796;28;1277;-72
2021/08/07 02:30:36;;;;;;;;;;;21.70;74.30;;;;;;5043641;28;1274;-72
2021/08/07 02:33:02;;;;;;;;;;;21.70;74.30;;;;;;5044017;28;1391;-71
2021/08/07 02:35:27;;;;;;;;;;;21.70;74.40;;;;;;5044225;28;1265;-71
2021/08/07 02:37:52;;;;;;;;;;;21.70;74.30;;;;;;5052705;28;1977;-71
2021/08/07 02:40:18;;;;;;;;;;;21.70;74.40;;;;;;5033487;28;988;-71
2021/08/07 02:42:43;;;;;;;;;;;21.70;74.40;;;;;;5034654;28;1265;-72
2021/08/07 02:45:09;;;;;;;;;;;21.70;75.10;;;;;;5033411;28;1063;-71
2021/08/07 02:47:34;;;;;;;;;;;21.70;74.40;;;;;;5034492;28;1063;-71
2021/08/07 02:50:00;;;;;;;;;;;21.70;74.40;;;;;;5033413;28;1146;-71
2021/08/07 02:52:26;;;;;;;;;;;21.70;74.40;;;;;;5043940;28;1310;-71
2021/08/07 02:54:51;;;;;;;;;;;21.70;74.40;;;;;;5046833;28;1070;-71
2021/08/07 02:57:17;;;;;;;;;;;21.70;74.40;;;;;;5032905;28;1166;-71
2021/08/07 02:59:42;;;;;;;;;;;21.70;74.40;;;;;;5033232;28;1982;-71
2021/08/07 03:02:08;;;;;;;;;;;21.70;74.40;;;;;;5032926;28;1231;-72
2021/08/07 03:04:33;;;;;;;;;;;21.70;74.50;;;;;;5034113;28;1450;-72
2021/08/07 03:06:58;;;;;;;;;;;21.70;74.40;;;;;;5034372;28;1059;-72
2021/08/07 03:09:24;;;;;;;;;;;21.70;74.50;;;;;;5034297;28;1059;-71
2021/08/07 03:11:49;;;;;;;;;;;21.70;74.50;;;;;;5033736;28;1412;-71
2021/08/07 03:14:15;;;;;;;;;;;21.70;74.50;;;;;;5033850;28;1063;-71
2021/08/07 03:16:40;;;;;;;;;;;21.70;74.50;;;;;;5034113;28;1087;-71
2021/08/07 03:19:06;;;;;;;;;;;21.70;74.50;;;;;;5032535;28;1918;-71
2021/08/07 03:21:31;;;;;;;;;;;21.70;74.50;;;;;;5032767;28;1272;-71
2021/08/07 03:23:56;;;;;;;;;;;21.70;74.50;;;;;;5033662;28;1225;-71
2021/08/07 03:26:23;;;;;;;;;;;21.70;74.50;;;;;;5040070;28;1059;-71
2021/08/07 03:28:49;;;;;;;;;;;21.70;74.50;;;;;;5048078;28;1169;-71
2021/08/07 03:31:14;;;;;;;;;;;21.70;74.60;;;;;;5032738;28;1087;-70
2021/08/07 03:33:40;;;;;;;;;;;21.70;74.60;;;;;;5040050;28;1284;-70
2021/08/07 03:36:05;;;;;;;;;;;21.70;74.60;;;;;;5052137;28;1158;-71
2021/08/07 03:38:31;;;;;;;;;;;21.70;74.70;;;;;;5052211;28;1975;-71
2021/08/07 03:40:56;;;;;;;;;;;21.70;74.60;;;;;;5052389;28;1144;-71
2021/08/07 03:43:22;;;;;;;;;;;21.70;74.60;;;;;;5053468;28;1275;-71
2021/08/07 03:45:47;;;;;;;;;;;21.70;74.60;;;;;;5051974;28;1338;-71
2021/08/07 03:48:13;;;;;;;;;;;21.70;74.70;;;;;;5052109;28;1064;-71
2021/08/07 03:50:38;;;;;;;;;;;21.70;74.60;;;;;;5053441;28;1058;-71
2021/08/07 03:53:03;;;;;;;;;;;21.70;74.70;;;;;;5037045;28;1281;-71
2021/08/07 03:55:29;;;;;;;;;;;21.70;74.70;;;;;;5032750;28;1122;-71
2021/08/07 03:57:55;;;;;;;;;;;21.70;74.70;;;;;;5033137;28;1953;-71
2021/08/07 04:00:21;;;;;;;;;;;21.70;74.70;;;;;;5032113;28;1087;-71
2021/08/07 04:02:47;;;;;;;;;;;21.70;74.70;;;;;;5033224;28;1263;-71
2021/08/07 04:05:12;;;;;;;;;;;21.70;74.70;;;;;;5033353;28;1095;-71
2021/08/07 04:07:38;;;;;;;;;;;21.70;74.70;;;;;;5031838;28;1197;-71
2021/08/07 04:10:03;;;;;;;;;;;21.70;74.80;;;;;;5032906;28;1098;-71
2021/08/07 04:12:29;;;;;;;;;;;21.70;74.80;;;;;;5031798;28;1272;-71
2021/08/07 04:14:54;;;;;;;;;;;21.70;74.80;;;;;;5032947;28;1071;-71
2021/08/07 04:17:20;;;;;;;;;;;21.70;74.80;;;;;;5033007;28;1142;-71
2021/08/07 04:19:45;;;;;;;;;;;21.70;74.90;;;;;;5033339;28;1969;-71
2021/08/07 04:22:10;;;;;;;;;;;21.70;74.80;;;;;;5032820;28;1353;-71
2021/08/07 04:24:36;;;;;;;;;;;21.70;74.90;;;;;;5032442;28;1162;-71
2021/08/07 04:27:01;;;;;;;;;;;21.70;74.90;;;;;;5045350;28;1158;-71
2021/08/07 04:29:27;;;;;;;;;;;21.70;74.90;;;;;;5040901;28;1122;-71
2021/08/07 04:31:52;;;;;;;;;;;21.70;74.90;;;;;;5032787;28;1263;-71
2021/08/07 04:34:18;;;;;;;;;;;21.70;74.90;;;;;;5044262;28;1186;-71
2021/08/07 04:36:43;;;;;;;;;;;21.70;75.00;;;;;;5052609;28;1110;-71
2021/08/07 04:39:08;;;;;;;;;;;21.70;75.00;;;;;;5052400;28;1935;-72
2021/08/07 04:41:35;;;;;;;;;;;21.70;75.00;;;;;;5052570;28;1223;-71
2021/08/07 04:44:00;;;;;;;;;;;21.70;75.00;;;;;;5052595;28;1083;-71
2021/08/07 04:46:26;;;;;;;;;;;21.70;75.00;;;;;;5052553;28;1126;-71
2021/08/07 04:48:51;;;;;;;;;;;21.70;75.10;;;;;;5051481;28;1203;-72
2021/08/07 04:51:17;;;;;;;;;;;21.70;75.00;;;;;;5051076;28;1099;-72
2021/08/07 04:53:42;;;;;;;;;;;21.70;75.10;;;;;;5032663;28;1198;-73
2021/08/07 04:56:08;;;;;;;;;;;21.70;75.10;;;;;;5032329;28;1032;-72
2021/08/07 04:58:33;;;;;;;;;;;21.70;75.10;;;;;;5031423;28;1963;-72
2021/08/07 05:00:58;;;;;;;;;;;21.70;75.00;;;;;;5032717;28;1165;-72
2021/08/07 05:03:24;;;;;;;;;;;21.70;75.20;;;;;;5032414;28;1296;-72
2021/08/07 05:05:49;;;;;;;;;;;21.70;75.10;;;;;;5032257;28;1168;-72
2021/08/07 05:08:15;;;;;;;;;;;21.70;75.10;;;;;;5031143;28;1107;-71
2021/08/07 05:10:42;;;;;;;;;;;21.70;75.10;;;;;;5032529;28;1139;-71
2021/08/07 05:13:08;;;;;;;;;;;21.70;75.10;;;;;;5031085;28;1330;-70
2021/08/07 05:15:33;;;;;;;;;;;21.70;75.20;;;;;;5031871;28;1114;-70
2021/08/07 05:17:59;;;;;;;;;;;21.70;75.20;;;;;;5032337;28;1981;-70
2021/08/07 05:20:24;;;;;;;;;;;21.70;75.10;;;;;;5032555;28;1110;-70
2021/08/07 05:22:49;;;;;;;;;;;21.70;75.00;;;;;;5032137;28;1306;-70
2021/08/07 05:25:15;;;;;;;;;;;21.70;75.00;;;;;;5031982;28;1099;-70
2021/08/07 05:27:40;;;;;;;;;;;21.70;75.00;;;;;;5050329;28;1171;-70
2021/08/07 05:30:06;;;;;;;;;;;21.70;74.90;;;;;;5036085;28;1083;-70
2021/08/07 05:32:32;;;;;;;;;;;21.70;74.90;;;;;;5031130;28;1326;-70
2021/08/07 05:34:57;;;;;;;;;;;21.70;74.90;;;;;;5048811;28;1150;-70
2021/08/07 05:37:22;;;;;;;;;;;21.70;74.90;;;;;;5052095;28;1157;-71
2021/08/07 05:39:48;;;;;;;;;;;21.70;74.90;;;;;;5051867;28;2005;-70
2021/08/07 05:42:13;;;;;;;;;;;21.70;74.90;;;;;;5052306;28;1279;-70
2021/08/07 05:44:39;;;;;;;;;;;21.70;74.90;;;;;;5051757;28;1142;-70
2021/08/07 05:47:04;;;;;;;;;;;21.70;74.90;;;;;;5052297;28;1129;-70
2021/08/07 05:49:30;;;;;;;;;;;21.70;74.90;;;;;;5054922;28;1071;-71
2021/08/07 05:51:55;;;;;;;;;;;21.70;74.90;;;;;;5048978;28;1283;-71
2021/08/07 05:54:20;;;;;;;;;;;21.70;74.90;;;;;;5035005;28;1075;-71
2021/08/07 05:56:46;;;;;;;;;;;21.70;74.90;;;;;;5035767;28;1083;-71
2021/08/07 05:59:12;;;;;;;;;;;21.70;74.90;;;;;;5035701;28;1968;-71
2021/08/07 06:01:37;;;;;;;;;;;21.70;74.90;;;;;;5035486;28;1283;-71
2021/08/07 06:04:03;;;;;;;;;;;21.70;75.00;;;;;;5034044;28;1119;-71
2021/08/07 06:06:28;;;;;;;;;;;21.70;75.00;;;;;;5034451;28;1286;-72
2021/08/07 06:08:53;;;;;;;;;;;21.70;75.00;;;;;;5035535;28;1126;-72
2021/08/07 06:11:19;;;;;;;;;;;21.70;75.00;;;;;;5035422;28;1067;-72
2021/08/07 06:13:44;;;;;;;;;;;21.70;75.10;;;;;;5035098;28;1204;-72
2021/08/07 06:16:10;;;;;;;;;;;21.70;75.20;;;;;;5017348;28;1200;-72
2021/08/07 06:18:35;;;;;;;;;;;21.70;75.20;;;;;;5033997;28;1906;-72
2021/08/07 06:21:01;;;;;;;;;;;21.70;75.20;;;;;;5035398;28;1079;-72
2021/08/07 06:23:26;;;;;;;;;;;21.70;75.30;;;;;;5034645;28;1299;-72
2021/08/07 06:25:51;;;;;;;;;;;21.70;75.30;;;;;;5037846;28;1067;-71
2021/08/07 06:28:17;;;;;;;;;;;21.70;75.40;;;;;;5051103;28;1141;-70
2021/08/07 06:30:45;;;;;;;;;;;21.70;75.40;;;;;;5035178;28;1130;-71
2021/08/07 06:33:11;;;;;;;;;;;21.70;75.30;;;;;;5037478;28;1342;-71
2021/08/07 06:35:36;;;;;;;;;;;21.70;75.40;;;;;;5054571;28;1058;-72
2021/08/07 06:38:02;;;;;;;;;;;21.70;75.40;;;;;;5054446;28;1898;-72
2021/08/07 06:40:28;;;;;;;;;;;21.70;75.20;;;;;;5054706;28;1226;-72
2021/08/07 06:42:54;;;;;;;;;;;21.70;75.00;;;;;;5053369;28;1294;-71
2021/08/07 06:45:19;;;;;;;;;;;21.70;74.90;;;;;;5054356;28;1065;-71
2021/08/07 06:47:44;;;;;;;;;;;21.70;74.90;;;;;;5053341;28;1062;-71
2021/08/07 06:50:10;;;;;;;;;;;21.70;74.90;;;;;;5052021;28;1963;-72
2021/08/07 06:52:35;;;;;;;;;;;21.70;74.90;;;;;;5047528;28;1900;-73
2021/08/07 06:55:01;;;;;;;;;;;21.70;75.00;;;;;;5041682;28;1069;-73
2021/08/07 06:57:26;;;;;;;;;;;21.60;74.90;;;;;;5044583;28;1067;-72
2021/08/07 06:59:52;;;;;;;;;;;21.70;74.70;;;;;;5045221;28;1910;-72
2021/08/07 07:02:18;;;;;;;;;;;21.70;74.60;;;;;;5037606;28;1282;-74
2021/08/07 07:04:43;;;;;;;;;;;21.70;74.50;;;;;;5044483;28;1091;-72
2021/08/07 07:07:09;;;;;;;;;;;21.60;74.40;;;;;;5035900;28;1891;-74
2021/08/07 07:09:34;;;;;;;;;;;21.60;74.30;;;;;;5045900;28;1054;-74
2021/08/07 07:11:59;;;;;;;;;;;21.60;74.40;;;;;;5028741;28;1368;-72
2021/08/07 07:14:25;;;;;;;;;;;21.60;74.40;;;;;;5053192;28;1616;-71
2021/08/07 07:16:51;;;;;;;;;;;21.60;74.50;;;;;;5054334;28;1110;-71
2021/08/07 07:19:16;;;;;;;;;;;21.60;74.50;;;;;;5052653;28;1969;-71
2021/08/07 07:21:42;;;;;;;;;;;21.60;74.40;;;;;;5053598;28;1359;-71
2021/08/07 07:24:07;;;;;;;;;;;21.60;74.50;;;;;;5053537;28;1094;-71
2021/08/07 07:26:33;;;;;;;;;;;21.60;74.50;;;;;;5045295;28;1086;-71
2021/08/07 07:28:58;;;;;;;;;;;21.60;74.50;;;;;;5032665;28;1189;-72
2021/08/07 07:31:24;;;;;;;;;;;21.60;74.40;;;;;;5032676;28;1051;-71
2021/08/07 07:33:49;;;;;;;;;;;21.60;74.50;;;;;;5041192;28;1190;-72
2021/08/07 07:36:15;;;;;;;;;;;21.60;74.40;;;;;;5051985;28;1054;-72
2021/08/07 07:38:40;;;;;;;;;;;21.60;74.40;;;;;;5052345;28;1965;-70
2021/08/07 07:41:05;;;;;;;;;;;21.60;74.40;;;;;;5052464;28;1054;-73
2021/08/07 07:43:31;;;;;;;;;;;21.60;74.40;;;;;;5052159;28;1215;-72
2021/08/07 07:45:57;;;;;;;;;;;21.60;74.40;;;;;;5052027;28;1050;-72
2021/08/07 07:48:22;;;;;;;;;;;21.60;74.40;;;;;;5053499;28;1075;-72
2021/08/07 07:50:48;;;;;;;;;;;21.60;74.40;;;;;;5053118;28;1118;-72
2021/08/07 07:53:14;;;;;;;;;;;21.60;74.40;;;;;;5036111;28;1279;-72
2021/08/07 07:55:39;;;;;;;;;;;21.60;74.40;;;;;;5032948;28;1134;-72
2021/08/07 07:58:05;;;;;;;;;;;21.60;74.30;;;;;;5015590;28;1890;-71
2021/08/07 08:00:30;;;;;;;;;;;21.60;74.30;;;;;;5033346;28;1102;-72
2021/08/07 08:02:56;;;;;;;;;;;21.60;74.40;;;;;;5037911;28;2058;-72
2021/08/07 08:05:21;;;;;;;;;;;21.60;74.40;;;;;;5043641;28;2086;-74
2021/08/07 08:07:46;;;;;;;;;;;21.60;74.40;;;;;;5043632;28;1955;-74
2021/08/07 08:10:12;;;;;;;;;;;21.60;74.40;;;;;;5053281;28;1337;-74
2021/08/07 08:12:38;;;;;;;;;;;21.60;74.60;;;;;;5045596;28;2086;-70
2021/08/07 08:15:04;;;;;;;;;;;21.60;74.40;;;;;;5043193;28;1593;-70
2021/08/07 08:17:30;;;;;;;;;;;21.60;74.30;;;;;;5036271;28;1536;-70
2021/08/07 08:19:55;;;;;;;;;;;21.60;74.20;;;;;;5032171;28;1906;-70
2021/08/07 08:22:21;;;;;;;;;;;21.60;74.20;;;;;;5044806;28;1621;-70
2021/08/07 08:24:46;;;;;;;;;;;21.70;74.30;;;;;;5030995;28;1682;-70
2021/08/07 08:27:13;;;;;;;;;;;21.70;74.40;;;;;;5046980;28;1549;-71
2021/08/07 08:29:38;;;;;;;;;;;21.70;74.40;;;;;;5049967;28;2168;-70
2021/08/07 08:32:04;;;;;;;;;;;21.70;74.20;;;;;;5043036;28;1292;-71
2021/08/07 08:34:29;;;;;;;;;;;21.60;74.30;;;;;;5051126;28;1288;-70
2021/08/07 08:36:55;;;;;;;;;;;21.60;74.40;;;;;;5044048;28;1058;-70
2021/08/07 08:39:20;;;;;;;;;;;21.70;74.40;;;;;;5044916;28;1894;-71
2021/08/07 08:41:46;;;;;;;;;;;21.70;74.20;;;;;;5031313;28;1365;-70
2021/08/07 08:44:11;;;;;;;;;;;21.70;74.40;;;;;;5031266;28;1051;-70
2021/08/07 08:46:37;;;;;;;;;;;21.70;74.20;;;;;;5031529;28;1233;-70
2021/08/07 08:49:02;;;;;;;;;;;21.70;74.00;;;;;;5031224;28;1079;-70
2021/08/07 08:51:28;;;;;;;;;;;21.70;74.00;;;;;;5043765;28;1962;-70
2021/08/07 08:53:54;;;;;;;;;;;21.70;74.00;;;;;;5052693;28;1572;-70
2021/08/07 08:56:19;;;;;;;;;;;21.70;74.00;;;;;;5044316;28;1396;-71
2021/08/07 08:58:45;;;;;;;;;;;21.70;73.90;;;;;;5039755;28;1963;-71
2021/08/07 09:01:10;;;;;;;;;;;21.70;73.70;;;;;;5048537;28;1481;-72
2021/08/07 09:03:36;;;;;;;;;;;21.70;73.60;;;;;;5049333;28;1316;-72
2021/08/07 09:06:01;;;;;;;;;;;21.70;73.60;;;;;;5050601;28;1260;-71
2021/08/07 09:08:27;;;;;;;;;;;21.70;73.60;;;;;;5046524;28;1333;-71
2021/08/07 09:11:11;;;;;;;;;;;21.70;73.30;;;;;;5021359;28;1242;-72
2021/08/07 09:13:37;;;;;;;;;;;21.70;73.30;;;;;;5036370;28;1658;-72
2021/08/07 09:16:06;;;;;;;;;;;21.70;73.30;;;;;;5039748;28;868;-71
2021/08/07 09:18:31;;;;;;;;;;;21.70;73.40;;;;;;5052139;28;1979;-72
2021/08/07 09:20:57;;;;;;;;;;;21.70;74.30;;;;;;5052462;28;1688;-71
2021/08/07 09:23:29;;;;;;;;;;;21.70;73.70;;;;;;5052314;28;1420;-71
2021/08/07 09:25:55;;;;;;;;;;;21.70;73.60;;;;;;5043351;28;1479;-71
2021/08/07 09:28:20;;;;;;;;;;;21.70;74.40;;;;;;5043946;28;1447;-73
2021/08/07 09:30:45;;;;;;;;;;;21.70;73.60;;;;;;5045398;28;1354;-72
2021/08/07 09:33:12;;;;;;;;;;;21.70;73.50;;;;;;5055689;28;1461;-73
2021/08/07 09:35:38;;;;;;;;;;;21.70;73.40;;;;;;5047374;28;1432;-73
2021/08/07 09:38:08;;;;;;;;;;;21.70;73.50;;;;;;5047623;28;1898;-71
2021/08/07 09:40:43;;;;;;;;;;;21.70;72.60;;;;;;5045387;28;1325;-71
2021/08/07 09:43:09;;;;;;;;;;;21.70;73.10;;;;;;5040501;28;1592;-71
2021/08/07 09:45:34;;;;;;;;;;;21.70;73.20;;;;;;5046433;28;1943;-71
2021/08/07 09:48:04;;;;;;;;;;;21.70;73.20;;;;;;5045965;28;1107;-72
2021/08/07 09:50:30;;;;;;;;;;;21.70;72.50;;;;;;5051554;28;1132;-71
2021/08/07 09:52:56;;;;;;;;;;;21.70;72.90;;;;;;5047311;28;1309;-71
2021/08/07 09:55:21;;;;;;;;;;;21.70;72.50;;;;;;5049988;28;1275;-71
2021/08/07 09:57:47;;;;;;;;;;;21.70;72.50;;;;;;5054095;28;1879;-71
2021/08/07 10:00:12;;;;;;;;;;;21.80;72.80;;;;;;5053917;28;1284;-71
2021/08/07 10:02:38;;;;;;;;;;;21.80;72.80;;;;;;5054547;28;1271;-72
2021/08/07 10:05:04;;;;;;;;;;;21.80;72.50;;;;;;5047311;28;1130;-71
2021/08/07 10:07:29;;;;;;;;;;;21.80;72.40;;;;;;5036336;28;1126;-71
2021/08/07 10:09:55;;;;;;;;;;;21.80;72.60;;;;;;5034040;28;1150;-72
2021/08/07 10:12:20;;;;;;;;;;;21.80;72.40;;;;;;5035001;28;1260;-71
2021/08/07 10:14:46;;;;;;;;;;;21.80;72.40;;;;;;5034798;28;1113;-72
2021/08/07 10:17:12;;;;;;;;;;;21.80;72.10;;;;;;5033914;28;1154;-71
2021/08/07 10:19:37;;;;;;;;;;;21.80;71.90;;;;;;5034867;28;1898;-71
2021/08/07 10:22:06;;;;;;;;;;;21.80;72.50;;;;;;5035477;28;1348;-71
2021/08/07 10:24:31;;;;;;;;;;;21.80;72.60;;;;;;5033413;28;1130;-71
2021/08/07 10:26:58;;;;;;;;;;;21.80;72.00;;;;;;5029148;28;1295;-72
2021/08/07 10:29:24;;;;;;;;;;;21.80;71.70;;;;;;5042345;28;1059;-71
2021/08/07 10:31:49;;;;;;;;;;;21.80;72.00;;;;;;5033525;28;1400;-72
2021/08/07 10:34:15;;;;;;;;;;;21.80;71.30;;;;;;5044060;28;1672;-72
2021/08/07 10:36:40;;;;;;;;;;;21.80;71.10;;;;;;5053471;28;1118;-71
2021/08/07 10:39:06;;;;;;;;;;;21.80;71.40;;;;;;5055303;28;2041;-71
2021/08/07 10:41:32;;;;;;;;;;;21.80;71.00;;;;;;5054371;28;1357;-72
2021/08/07 10:43:58;;;;;;;;;;;21.80;71.00;;;;;;5053061;28;1038;-71
2021/08/07 10:46:23;;;;;;;;;;;21.80;71.10;;;;;;5054597;28;1277;-71
2021/08/07 10:48:49;;;;;;;;;;;21.90;70.70;;;;;;5054560;28;1107;-71
2021/08/07 10:51:24;;;;;;;;;;;21.90;70.80;;;;;;5052193;28;1122;-71
2021/08/07 10:53:50;;;;;;;;;;;21.90;70.30;;;;;;5034406;28;1315;-71
2021/08/07 10:56:24;;;;;;;;;;;21.90;69.90;;;;;;5038230;28;1099;-72
2021/08/07 10:58:50;;;;;;;;;;;21.90;69.30;;;;;;5040965;28;1902;-71
2021/08/07 11:01:25;;;;;;;;;;;21.90;69.40;;;;;;5033128;28;1308;-71
2021/08/07 11:03:50;;;;;;;;;;;21.90;70.70;;;;;;5041365;28;1134;-71
2021/08/07 11:06:18;;;;;;;;;;;21.80;70.10;;;;;;5045634;28;1265;-72
2021/08/07 11:08:44;;;;;;;;;;;21.80;69.00;;;;;;5040807;28;1164;-71
2021/08/07 11:11:28;;;;;;;;;;;21.80;70.30;;;;;;5045974;28;1232;-72
2021/08/07 11:13:54;;;;;;;;;;;21.80;69.90;;;;;;5048960;28;1160;-72
2021/08/07 11:16:20;;;;;;;;;;;21.90;70.40;;;;;;5053342;28;1193;-72
2021/08/07 11:18:45;;;;;;;;;;;21.80;70.10;;;;;;5052650;28;1972;-71
2021/08/07 11:21:46;;;;;;;;;;;21.90;69.80;;;;;;5051035;28;1851;-70
2021/08/07 11:24:47;;;;;;;;;;;21.80;70.70;;;;;;5022732;28;1653;-71
2021/08/07 11:27:12;;;;;;;;;;;21.90;70.20;;;;;;5053582;28;1064;-70
2021/08/07 11:29:56;;;;;;;;;;;21.90;70.60;;;;;;5051803;28;985;-70
2021/08/07 11:32:22;;;;;;;;;;;21.80;70.30;;;;;;5033817;28;1306;-71
2021/08/07 11:34:47;;;;;;;;;;;21.90;70.20;;;;;;5046284;28;1291;-70
2021/08/07 11:37:13;;;;;;;;;;;21.80;70.30;;;;;;5045272;28;1656;-71
2021/08/07 11:40:02;;;;;;;;;;;21.90;70.50;;;;;;5032638;28;1902;-70
2021/08/07 11:42:38;;;;;;;;;;;21.90;70.40;;;;;;5033956;28;1244;-70
2021/08/07 11:45:03;;;;;;;;;;;21.90;70.40;;;;;;5032064;28;1477;-71
2021/08/07 11:47:29;;;;;;;;;;;21.90;70.50;;;;;;5033683;28;764;-70
2021/08/07 11:49:54;;;;;;;;;;;21.90;70.10;;;;;;5052246;28;1054;-69
2021/08/07 11:52:20;;;;;;;;;;;21.90;69.90;;;;;;5043647;28;1639;-70
2021/08/07 11:54:51;;;;;;;;;;;21.90;69.40;;;;;;5052011;28;1241;-70
2021/08/07 11:57:23;;;;;;;;;;;21.90;70.70;;;;;;5053048;28;1134;-70
2021/08/07 11:59:48;;;;;;;;;;;21.90;70.20;;;;;;5030868;28;2037;-70
2021/08/07 12:02:15;;;;;;;;;;;21.90;69.40;;;;;;5036373;28;1842;-69
2021/08/07 12:04:41;;;;;;;;;;;21.90;69.50;;;;;;5048517;28;1800;-70
2021/08/07 12:07:10;;;;;;;;;;;21.90;68.90;;;;;;5044925;28;1401;-70
2021/08/07 12:09:35;;;;;;;;;;;21.90;67.50;;;;;;5043682;28;1360;-70
2021/08/07 12:12:01;;;;;;;;;;;21.90;68.30;;;;;;5046672;28;1581;-69
2021/08/07 12:14:26;;;;;;;;;;;21.90;66.40;;;;;;5033098;28;1189;-71
2021/08/07 12:16:52;;;;;;;;;;;21.90;66.50;;;;;;5048004;28;1157;-70
2021/08/07 12:19:21;;;;;;;;;;;21.90;65.30;;;;;;5043957;28;1910;-70
2021/08/07 12:21:46;;;;;;;;;;;21.90;65.90;;;;;;5026797;28;2180;-72
2021/08/07 12:24:20;;;;;;;;;;;22.00;67.80;;;;;;5048729;28;975;-71
2021/08/07 12:26:47;;;;;;;;;;;21.90;67.20;;;;;;5040483;28;1121;-71
2021/08/07 12:29:13;;;;;;;;;;;21.90;67.80;;;;;;5033185;28;1134;-70
2021/08/07 12:31:44;;;;;;;;;;;21.90;67.50;;;;;;5031326;28;1268;-69
2021/08/07 12:34:17;;;;;;;;;;;21.90;66.80;;;;;;5042574;28;1123;-71
2021/08/07 12:36:42;;;;;;;;;;;21.90;65.70;;;;;;5050475;28;1436;-71
2021/08/07 12:39:08;;;;;;;;;;;21.90;65.50;;;;;;5051596;28;1898;-70
2021/08/07 12:41:33;;;;;;;;;;;21.90;65.10;;;;;;5033498;28;1370;-71
2021/08/07 12:43:59;;;;;;;;;;;22.00;65.30;;;;;;5053178;28;1074;-71
2021/08/07 12:46:24;;;;;;;;;;;22.00;65.40;;;;;;5051794;28;1915;-72
2021/08/07 12:48:55;;;;;;;;;;;22.00;65.40;;;;;;5040189;28;1599;-73
2021/08/07 12:51:27;;;;;;;;;;;22.00;65.90;;;;;;5044583;28;2295;-70
2021/08/07 12:53:53;;;;;;;;;;;22.00;65.30;;;;;;5050076;28;1297;-72
2021/08/07 12:56:18;;;;;;;;;;;22.00;66.20;;;;;;5043961;28;1185;-72
2021/08/07 12:59:03;;;;;;;;;;;22.00;65.70;;;;;;5044513;28;1963;-72
2021/08/07 13:01:29;;;;;;;;;;;22.00;65.00;;;;;;5022923;28;1350;-72
2021/08/07 13:03:55;;;;;;;;;;;22.00;63.30;;;;;;5065946;28;1321;-73
2021/08/07 13:06:24;;;;;;;;;;;22.00;63.20;;;;;;5055051;28;1066;-73
2021/08/07 13:08:50;;;;;;;;;;;22.00;62.70;;;;;;5038458;28;1282;-72
2021/08/07 13:11:16;;;;;;;;;;;22.00;63.50;;;;;;5054872;28;1145;-72
2021/08/07 13:13:41;;;;;;;;;;;22.00;63.50;;;;;;5056174;28;1297;-72
2021/08/07 13:16:07;;;;;;;;;;;22.00;63.50;;;;;;5056012;28;1047;-73
2021/08/07 13:18:32;;;;;;;;;;;22.00;64.80;;;;;;5054509;28;2005;-72
2021/08/07 13:20:58;;;;;;;;;;;22.00;67.60;;;;;;5055887;28;1094;-72
2021/08/07 13:23:31;;;;;;;;;;;22.00;67.20;;;;;;5055767;28;1248;-72
2021/08/07 13:26:07;;;;;;;;;;;22.00;67.50;;;;;;5050597;28;1070;-73
2021/08/07 13:28:32;;;;;;;;;;;22.10;66.00;;;;;;5034429;28;1039;-73
2021/08/07 13:30:58;;;;;;;;;;;22.10;65.00;;;;;;5034368;28;1067;-73
2021/08/07 13:33:24;;;;;;;;;;;22.10;66.80;;;;;;5038621;28;1239;-72
2021/08/07 13:35:49;;;;;;;;;;;22.10;66.60;;;;;;5053942;28;1059;-72
2021/08/07 13:38:15;;;;;;;;;;;22.10;67.30;;;;;;5055443;28;1914;-73
2021/08/07 13:40:40;;;;;;;;;;;22.10;67.00;;;;;;5054067;28;1149;-73
2021/08/07 13:43:06;;;;;;;;;;;22.00;66.50;;;;;;5052381;28;1338;-71
2021/08/07 13:45:31;;;;;;;;;;;22.10;68.40;;;;;;5044615;28;1342;-71
2021/08/07 13:47:57;;;;;;;;;;;22.10;68.30;;;;;;5045928;28;1310;-71
2021/08/07 13:50:22;;;;;;;;;;;22.10;66.80;;;;;;5047494;28;1247;-71
2021/08/07 13:52:48;;;;;;;;;;;22.10;65.40;;;;;;5041551;28;1320;-72
2021/08/07 13:55:13;;;;;;;;;;;22.10;64.60;;;;;;5035427;28;1095;-72
2021/08/07 13:57:39;;;;;;;;;;;22.10;64.60;;;;;;5035248;28;1126;-72
2021/08/07 14:00:04;;;;;;;;;;;22.10;65.30;;;;;;5034373;28;1899;-72
2021/08/07 14:02:32;;;;;;;;;;;22.10;65.50;;;;;;5033813;28;1389;-72
2021/08/07 14:04:58;;;;;;;;;;;22.10;64.90;;;;;;5034009;28;1142;-72
2021/08/07 14:07:23;;;;;;;;;;;22.10;63.80;;;;;;5035292;28;1106;-71
2021/08/07 14:09:48;;;;;;;;;;;22.10;64.60;;;;;;5033700;28;1102;-72
2021/08/07 14:12:14;;;;;;;;;;;22.10;66.00;;;;;;5035166;28;1259;-72
2021/08/07 14:14:39;;;;;;;;;;;22.10;65.40;;;;;;5035075;28;1146;-71
2021/08/07 14:17:05;;;;;;;;;;;22.10;65.50;;;;;;5035158;28;1055;-71
2021/08/07 14:19:30;;;;;;;;;;;22.10;65.20;;;;;;5035000;28;1906;-71
2021/08/07 14:21:56;;;;;;;;;;;22.10;64.60;;;;;;5035178;28;1608;-71
2021/08/07 14:24:21;;;;;;;;;;;22.10;64.00;;;;;;5034597;28;1235;-70
2021/08/07 14:26:47;;;;;;;;;;;22.10;63.10;;;;;;5044092;28;1126;-70